createdAt,value
2022-11-22T00:00:27.890Z,5.58
2022-11-22T00:02:54.849Z,5.56
2022-11-22T00:05:22.103Z,5.62
2022-11-22T00:07:48.946Z,5.59
2022-11-22T00:10:16.346Z,5.60
2022-11-22T00:12:43.668Z,5.61
2022-11-22T00:15:11.401Z,5.60
2022-11-22T00:17:38.529Z,5.61
2022-11-22T00:20:07.228Z,5.62
2022-11-22T00:22:35.611Z,5.65
2022-11-22T00:25:04.284Z,5.65
2022-11-22T00:27:30.898Z,5.66
2022-11-22T00:29:57.909Z,5.70
2022-11-22T00:32:24.540Z,5.70
2022-11-22T00:34:51.214Z,5.70
2022-11-22T00:37:18.945Z,5.74
2022-11-22T00:39:45.588Z,5.73
2022-11-22T00:42:12.223Z,5.74
2022-11-22T00:44:38.963Z,5.71
2022-11-22T00:47:05.668Z,5.72
2022-11-22T00:49:32.593Z,5.76
2022-11-22T00:51:59.607Z,5.75
2022-11-22T00:54:26.301Z,5.75
2022-11-22T00:56:52.953Z,5.80
2022-11-22T00:59:19.651Z,5.78
2022-11-22T01:01:46.396Z,5.78
2022-11-22T01:04:13.136Z,5.80
2022-11-22T01:06:39.869Z,5.79
2022-11-22T01:09:06.546Z,5.77
2022-11-22T01:11:33.246Z,5.75
2022-11-22T01:14:00.785Z,5.76
2022-11-22T01:16:27.758Z,5.79
2022-11-22T01:18:54.402Z,5.82
2022-11-22T01:21:21.053Z,5.84
2022-11-22T01:23:47.814Z,5.84
2022-11-22T01:26:14.530Z,5.84
2022-11-22T01:28:41.204Z,5.81
2022-11-22T01:31:07.915Z,5.82
2022-11-22T01:33:34.617Z,5.83
2022-11-22T01:36:01.325Z,5.83
2022-11-22T01:38:27.968Z,5.83
2022-11-22T01:40:55.065Z,5.84
2022-11-22T01:43:26.528Z,5.85
2022-11-22T01:45:55.853Z,5.87
2022-11-22T01:48:46.218Z,5.89
2022-11-22T01:51:31.093Z,5.92
2022-11-22T01:54:00.871Z,5.89
2022-11-22T01:56:29.862Z,5.90
2022-11-22T01:59:04.891Z,5.89
2022-11-22T02:01:32.627Z,5.89
2022-11-22T02:04:01.519Z,5.88
2022-11-22T02:07:02.580Z,5.87
2022-11-22T02:09:30.247Z,5.88
2022-11-22T02:12:01.285Z,5.90
2022-11-22T02:14:32.211Z,5.89
2022-11-22T02:16:58.862Z,5.89
2022-11-22T02:19:39.368Z,5.92
2022-11-22T02:22:37.049Z,5.97
2022-11-22T02:25:14.526Z,5.96
2022-11-22T02:27:41.734Z,5.98
2022-11-22T02:30:09.616Z,5.98
2022-11-22T02:32:36.292Z,5.91
2022-11-22T02:35:03.337Z,5.97
2022-11-22T02:37:32.846Z,5.91
2022-11-22T02:40:04.975Z,5.87
2022-11-22T02:42:33.499Z,5.75
2022-11-22T02:45:00.180Z,5.71
2022-11-22T02:47:27.009Z,5.66
2022-11-22T02:49:55.348Z,5.58
2022-11-22T02:52:22.059Z,5.45
2022-11-22T02:54:49.302Z,5.57
2022-11-22T02:57:16.108Z,5.56
2022-11-22T02:59:42.985Z,5.43
2022-11-22T03:02:09.678Z,5.52
2022-11-22T03:04:36.393Z,5.48
2022-11-22T03:07:04.584Z,5.40
2022-11-22T03:09:32.652Z,5.37
2022-11-22T03:11:59.788Z,5.32
2022-11-22T03:14:26.411Z,5.38
2022-11-22T03:16:53.196Z,5.25
2022-11-22T03:19:20.202Z,5.45
2022-11-22T03:21:46.931Z,5.37
2022-11-22T03:24:14.042Z,5.42
2022-11-22T03:26:40.732Z,5.53
2022-11-22T03:29:07.445Z,5.45
2022-11-22T03:31:34.085Z,5.55
2022-11-22T03:34:00.840Z,5.70
2022-11-22T03:36:27.570Z,5.67
2022-11-22T03:38:54.261Z,5.68
2022-11-22T03:41:21.051Z,5.78
2022-11-22T03:43:47.749Z,5.80
2022-11-22T03:46:15.936Z,5.78
2022-11-22T03:48:42.695Z,5.79
2022-11-22T03:51:09.715Z,5.80
2022-11-22T03:53:36.517Z,5.90
2022-11-22T03:56:04.221Z,5.89
2022-11-22T03:58:31.048Z,5.92
2022-11-22T04:00:58.032Z,5.79
2022-11-22T04:03:24.691Z,5.94
2022-11-22T04:05:51.367Z,5.92
2022-11-22T04:08:18.118Z,5.96
2022-11-22T04:10:44.947Z,5.89
2022-11-22T04:13:11.613Z,5.96
2022-11-22T04:15:38.224Z,5.98
2022-11-22T04:18:05.007Z,6.20
2022-11-22T04:20:50.442Z,6.14
2022-11-22T04:23:19.769Z,6.13
2022-11-22T04:25:49.014Z,5.95
2022-11-22T04:28:18.521Z,5.95
2022-11-22T04:31:04.210Z,5.93
2022-11-22T04:33:31.135Z,5.91
2022-11-22T04:35:57.832Z,5.90
2022-11-22T04:38:25.048Z,5.88
2022-11-22T04:40:52.072Z,5.96
2022-11-22T04:43:43.438Z,6.00
2022-11-22T04:46:10.598Z,5.88
2022-11-22T04:48:37.400Z,5.89
2022-11-22T04:51:23.736Z,5.91
2022-11-22T04:53:50.523Z,5.89
2022-11-22T04:56:17.625Z,5.81
2022-11-22T04:58:44.603Z,5.76
2022-11-22T05:01:11.896Z,5.82
2022-11-22T05:03:38.776Z,5.81
2022-11-22T05:06:06.184Z,5.73
2022-11-22T05:08:33.066Z,5.73
2022-11-22T05:11:00.007Z,5.72
2022-11-22T05:13:32.531Z,5.64
2022-11-22T05:16:00.602Z,5.70
2022-11-22T05:18:28.877Z,5.78
2022-11-22T05:20:56.058Z,5.65
2022-11-22T05:23:42.226Z,5.75
2022-11-22T05:26:12.879Z,5.72
2022-11-22T05:28:39.928Z,5.75
2022-11-22T05:31:11.707Z,5.72
2022-11-22T05:33:41.424Z,5.75
2022-11-22T05:36:08.919Z,5.81
2022-11-22T05:38:37.816Z,5.80
2022-11-22T05:41:09.743Z,5.83
2022-11-22T05:43:36.903Z,5.88
2022-11-22T05:46:22.532Z,5.98
2022-11-22T05:48:50.934Z,5.97
2022-11-22T05:51:21.229Z,5.94
2022-11-22T05:53:48.249Z,5.95
2022-11-22T05:56:20.444Z,5.97
2022-11-22T05:58:47.442Z,5.91
2022-11-22T06:01:17.017Z,5.80
2022-11-22T06:03:43.875Z,5.66
2022-11-22T06:06:11.139Z,5.70
2022-11-22T06:08:41.187Z,5.84
2022-11-22T06:11:16.234Z,5.86
2022-11-22T06:13:46.030Z,5.78
2022-11-22T06:16:13.541Z,5.71
2022-11-22T06:18:40.386Z,5.71
2022-11-22T06:21:11.021Z,5.70
2022-11-22T06:23:37.791Z,5.85
2022-11-22T06:26:10.003Z,5.85
2022-11-22T06:28:38.293Z,5.88
2022-11-22T06:31:07.964Z,5.84
2022-11-22T06:33:35.274Z,5.85
2022-11-22T06:36:03.775Z,5.80
2022-11-22T06:38:30.491Z,5.81
2022-11-22T06:41:08.579Z,5.84
2022-11-22T06:43:37.173Z,5.83
2022-11-22T06:46:05.104Z,5.86
2022-11-22T06:48:36.909Z,5.85
2022-11-22T06:51:06.011Z,5.90
2022-11-22T06:53:50.084Z,5.89
2022-11-22T06:56:23.034Z,5.84
2022-11-22T06:58:51.413Z,5.84
2022-11-22T07:01:24.205Z,5.81
2022-11-22T07:03:51.193Z,5.85
2022-11-22T07:06:19.273Z,5.78
2022-11-22T07:08:46.783Z,5.85
2022-11-22T07:11:16.305Z,5.85
2022-11-22T07:13:43.996Z,5.85
2022-11-22T07:16:13.127Z,5.80
2022-11-22T07:18:40.761Z,5.95
2022-11-22T07:21:13.110Z,5.96
2022-11-22T07:23:44.862Z,5.90
2022-11-22T07:26:12.872Z,5.93
2022-11-22T07:28:40.030Z,5.94
2022-11-22T07:31:09.085Z,5.93
2022-11-22T07:33:35.945Z,5.90
2022-11-22T07:36:06.536Z,5.84
2022-11-22T07:38:34.057Z,5.84
2022-11-22T07:41:01.470Z,5.92
2022-11-22T07:43:28.635Z,5.91
2022-11-22T07:46:06.560Z,5.91
2022-11-22T07:48:33.253Z,5.91
2022-11-22T07:51:05.260Z,5.91
2022-11-22T07:53:32.228Z,5.95
2022-11-22T07:56:02.312Z,5.92
2022-11-22T07:58:29.036Z,5.94
2022-11-22T08:01:02.107Z,5.93
2022-11-22T08:03:29.430Z,5.93
2022-11-22T08:06:04.265Z,5.94
2022-11-22T08:08:31.598Z,5.97
2022-11-22T08:10:58.496Z,5.98
2022-11-22T08:13:26.825Z,5.97
2022-11-22T08:15:54.853Z,5.99
2022-11-22T08:18:22.493Z,6.01
2022-11-22T08:20:49.234Z,6.03
2022-11-22T08:23:15.921Z,6.06
2022-11-22T08:25:42.762Z,6.10
2022-11-22T08:28:09.501Z,6.17
2022-11-22T08:30:36.198Z,6.26
2022-11-22T08:33:02.959Z,6.32
2022-11-22T08:35:29.737Z,6.23
2022-11-22T08:37:58.069Z,6.11
2022-11-22T08:40:24.857Z,5.90
2022-11-22T08:42:54.714Z,5.84
2022-11-22T08:45:21.652Z,5.84
2022-11-22T08:47:49.207Z,5.80
2022-11-22T08:50:17.850Z,5.73
2022-11-22T08:52:44.677Z,5.79
2022-11-22T08:55:11.424Z,5.80
2022-11-22T08:57:38.280Z,5.82
2022-11-22T09:00:06.732Z,5.88
2022-11-22T09:02:33.421Z,6.00
2022-11-22T09:05:00.130Z,6.05
2022-11-22T09:10:15.081Z,5.94
2022-11-22T09:12:45.871Z,5.90
2022-11-22T09:15:13.258Z,5.91
2022-11-22T09:17:40.411Z,5.91
2022-11-22T09:20:07.613Z,6.00
2022-11-22T09:22:34.985Z,6.03
2022-11-22T09:25:02.028Z,6.13
2022-11-22T09:27:28.972Z,6.27
2022-11-22T09:29:55.724Z,6.33
2022-11-22T09:32:22.563Z,6.29
2022-11-22T09:34:49.376Z,6.27
2022-11-22T09:37:18.685Z,6.28
2022-11-22T09:39:48.460Z,6.40
2022-11-22T09:42:34.548Z,6.43
2022-11-22T09:45:07.332Z,6.42
2022-11-22T09:48:04.199Z,6.40
2022-11-22T09:50:56.037Z,6.57
2022-11-22T09:53:50.044Z,6.83
2022-11-22T09:56:20.033Z,6.95
2022-11-22T09:58:55.389Z,7.04
2022-11-22T10:01:35.025Z,6.77
2022-11-22T10:04:08.442Z,6.75
2022-11-22T10:06:39.416Z,7.03
2022-11-22T10:09:38.672Z,7.48
2022-11-22T10:12:11.706Z,7.93
2022-11-22T10:14:57.010Z,8.10
2022-11-22T10:17:54.929Z,7.48
2022-11-22T10:20:24.394Z,7.41
2022-11-22T10:22:52.513Z,7.20
2022-11-22T10:25:22.580Z,7.29
2022-11-22T10:28:06.309Z,7.23
2022-11-22T10:30:39.767Z,7.28
2022-11-22T10:33:21.657Z,7.06
2022-11-22T10:36:22.093Z,7.00
2022-11-22T10:39:22.757Z,6.91
2022-11-22T10:42:24.332Z,6.96
2022-11-22T10:45:16.064Z,7.16
2022-11-22T10:48:06.352Z,8.18
2022-11-22T10:50:51.784Z,8.45
2022-11-22T10:53:43.411Z,8.08
2022-11-22T10:56:26.813Z,8.31
2022-11-22T10:59:12.626Z,8.74
2022-11-22T11:01:55.869Z,8.17
2022-11-22T11:04:24.495Z,7.84
2022-11-22T11:07:13.058Z,7.92
2022-11-22T11:12:49.392Z,7.79
2022-11-22T11:15:31.232Z,7.76
2022-11-22T11:18:04.056Z,7.71
2022-11-22T11:20:38.545Z,7.77
2022-11-22T11:23:20.714Z,7.79
2022-11-22T11:25:49.197Z,7.74
2022-11-22T11:28:24.637Z,7.57
2022-11-22T11:30:55.471Z,7.70
2022-11-22T11:33:30.786Z,7.71
2022-11-22T11:36:29.822Z,7.96
2022-11-22T11:38:57.966Z,8.20
2022-11-22T11:41:35.298Z,8.32
2022-11-22T11:44:05.872Z,8.02
2022-11-22T11:46:41.736Z,8.04
2022-11-22T11:49:11.394Z,7.88
2022-11-22T11:51:40.221Z,7.92
2022-11-22T11:54:19.950Z,7.97
2022-11-22T11:57:01.094Z,7.84
2022-11-22T11:59:44.982Z,7.69
2022-11-22T12:02:11.714Z,7.76
2022-11-22T12:04:49.697Z,7.61
2022-11-22T12:07:25.212Z,7.65
2022-11-22T12:09:54.222Z,7.55
2022-11-22T12:12:20.952Z,7.60
2022-11-22T12:17:51.713Z,7.42
2022-11-22T12:20:25.193Z,7.48
2022-11-22T12:23:03.960Z,7.42
2022-11-22T12:25:37.639Z,7.52
2022-11-22T12:28:14.322Z,7.54
2022-11-22T12:30:43.166Z,7.60
2022-11-22T12:33:19.099Z,7.42
2022-11-22T12:35:46.387Z,7.48
2022-11-22T12:38:18.737Z,7.49
2022-11-22T12:40:49.891Z,7.50
2022-11-22T12:43:30.777Z,7.58
2022-11-22T12:46:10.031Z,7.60
2022-11-22T12:48:23.758Z,7.51
2022-11-22T12:48:54.896Z,7.44
2022-11-22T12:51:45.548Z,7.49
2022-11-22T12:54:19.970Z,7.43
2022-11-22T12:56:53.524Z,7.48
2022-11-22T12:59:44.240Z,7.54
2022-11-22T13:02:31.317Z,7.53
2022-11-22T13:05:07.607Z,7.56
2022-11-22T13:07:49.867Z,7.63
2022-11-22T13:10:28.279Z,7.50
2022-11-22T13:12:57.304Z,7.48
2022-11-22T13:15:30.165Z,7.39
2022-11-22T13:17:57.376Z,7.31
2022-11-22T13:20:29.092Z,7.26
2022-11-22T13:23:44.910Z,7.35
2022-11-22T13:26:21.740Z,7.28
2022-11-22T13:28:50.171Z,7.37
2022-11-22T13:31:19.596Z,7.31
2022-11-22T13:33:58.291Z,7.21
2022-11-22T13:36:27.739Z,7.26
2022-11-22T13:38:57.716Z,7.11
2022-11-22T13:41:51.685Z,7.10
2022-11-22T13:44:33.772Z,6.91
2022-11-22T13:47:23.261Z,6.95
2022-11-22T13:49:51.197Z,6.88
2022-11-22T13:52:17.998Z,6.88
2022-11-22T13:54:47.804Z,6.92
2022-11-22T13:57:31.731Z,6.99
2022-11-22T14:00:16.882Z,6.99
2022-11-22T14:03:11.473Z,6.88
2022-11-22T14:05:42.081Z,7.02
2022-11-22T14:08:40.439Z,6.92
2022-11-22T14:11:16.946Z,6.91
2022-11-22T14:14:34.674Z,6.88
2022-11-22T14:17:35.673Z,7.00
2022-11-22T14:20:44.443Z,6.99
2022-11-22T14:23:30.180Z,7.03
2022-11-22T14:26:02.062Z,7.09
2022-11-22T14:28:46.731Z,7.05
2022-11-22T14:31:27.396Z,7.15
2022-11-22T14:34:15.716Z,7.12
2022-11-22T14:36:42.539Z,7.07
2022-11-22T14:39:54.192Z,7.08
2022-11-22T14:42:36.422Z,7.09
2022-11-22T14:45:12.160Z,7.13
2022-11-22T14:47:53.707Z,7.08
2022-11-22T14:50:26.209Z,7.07
2022-11-22T14:52:59.477Z,7.12
2022-11-22T14:55:35.465Z,7.20
2022-11-22T14:58:06.247Z,7.07
2022-11-22T15:01:13.173Z,7.07
2022-11-22T15:09:16.277Z,6.92
2022-11-22T15:09:20.790Z,7.08
2022-11-22T15:10:24.314Z,7.00
2022-11-22T15:13:27.776Z,7.04
2022-11-22T15:57:29.896Z,6.71
2022-11-22T15:59:57.612Z,6.69
2022-11-22T16:02:29.455Z,6.69
2022-11-22T16:06:03.489Z,6.70
2022-11-22T16:07:52.908Z,6.68
2022-11-22T16:10:49.154Z,6.70
2022-11-22T16:13:19.040Z,6.66
2022-11-22T16:16:06.060Z,6.71
2022-11-22T16:18:33.212Z,6.68
2022-11-22T16:21:02.801Z,6.69
2022-11-22T16:23:31.929Z,6.69
2022-11-22T16:26:17.484Z,6.68
2022-11-22T16:28:44.978Z,6.69
2022-11-22T16:31:26.201Z,6.68
2022-11-22T16:33:55.636Z,6.67
2022-11-22T16:36:24.736Z,6.64
2022-11-22T16:38:51.821Z,6.69
2022-11-22T16:41:22.317Z,6.67
2022-11-22T16:43:52.904Z,6.66
2022-11-22T16:46:19.829Z,6.64
2022-11-22T16:48:47.132Z,6.64
2022-11-22T16:51:16.951Z,6.66
2022-11-22T16:53:45.939Z,6.68
2022-11-22T16:56:24.692Z,6.67
2022-11-22T16:58:53.076Z,6.66
2022-11-22T17:01:26.571Z,6.65
2022-11-22T17:03:56.028Z,6.64
2022-11-22T17:06:25.117Z,6.67
2022-11-22T17:08:54.409Z,6.67
2022-11-22T17:11:30.580Z,6.66
2022-11-22T17:13:58.116Z,6.66
2022-11-22T17:16:24.875Z,6.68
2022-11-22T17:18:53.144Z,6.69
2022-11-22T17:21:37.351Z,6.69
2022-11-22T17:24:06.909Z,6.70
2022-11-22T17:26:34.917Z,6.75
2022-11-22T17:29:01.977Z,6.75
2022-11-22T17:31:29.251Z,6.77
2022-11-22T17:33:58.514Z,6.79
2022-11-22T17:36:29.831Z,6.82
2022-11-22T17:38:58.091Z,6.80
2022-11-22T17:41:24.935Z,6.79
2022-11-22T17:43:52.337Z,6.86
2022-11-22T17:46:20.151Z,6.86
2022-11-22T17:48:58.862Z,6.88
2022-11-22T17:51:29.361Z,6.87
2022-11-22T17:53:58.368Z,6.83
2022-11-22T17:56:26.086Z,6.84
2022-11-22T17:58:53.108Z,6.86
2022-11-22T18:01:22.251Z,6.87
2022-11-22T18:03:49.579Z,6.88
2022-11-22T18:06:17.537Z,6.84
2022-11-22T18:08:47.177Z,6.85
2022-11-22T18:11:15.129Z,6.85
2022-11-22T18:13:42.304Z,6.85
2022-11-22T18:16:18.305Z,6.87
2022-11-22T18:19:01.256Z,6.88
2022-11-22T18:21:30.075Z,6.88
2022-11-22T18:24:00.886Z,6.93
2022-11-22T18:26:43.387Z,6.91
2022-11-22T18:29:41.755Z,6.92
2022-11-22T18:31:59.652Z,6.92
2022-11-22T18:34:26.521Z,6.91
2022-11-22T18:36:57.454Z,6.94
2022-11-22T18:39:28.645Z,6.96
2022-11-22T18:41:55.670Z,6.97
2022-11-22T18:44:22.425Z,6.94
2022-11-22T18:46:49.191Z,6.97
2022-11-22T18:49:15.925Z,6.98
2022-11-22T18:51:42.660Z,6.95
2022-11-22T18:54:12.916Z,6.95
2022-11-22T18:56:40.920Z,6.97
2022-11-22T18:59:12.717Z,7.01
2022-11-22T19:01:40.709Z,7.02
2022-11-22T19:04:08.035Z,7.01
2022-11-22T19:06:34.732Z,7.00
2022-11-22T19:09:02.493Z,6.96
2022-11-22T19:11:31.832Z,6.98
2022-11-22T19:13:58.736Z,6.97
2022-11-22T19:16:28.077Z,6.98
2022-11-22T19:18:55.037Z,6.96
2022-11-22T19:21:24.099Z,6.97
2022-11-22T19:23:51.025Z,7.02
2022-11-22T19:26:20.654Z,7.03
2022-11-22T19:28:48.787Z,7.01
2022-11-22T19:31:20.898Z,6.99
2022-11-22T19:33:48.431Z,6.99
2022-11-22T19:36:32.274Z,6.96
2022-11-22T19:39:00.464Z,6.96
2022-11-22T19:41:27.249Z,6.95
2022-11-22T19:43:56.208Z,6.96
2022-11-22T19:46:23.532Z,6.97
2022-11-22T19:48:54.867Z,6.97
2022-11-22T19:51:22.703Z,6.97
2022-11-22T19:53:53.621Z,6.94
2022-11-22T19:56:20.885Z,6.92
2022-11-22T19:58:52.852Z,6.92
2022-11-22T20:01:20.792Z,6.96
2022-11-22T20:03:52.363Z,7.05
2022-11-22T20:06:19.778Z,7.05
2022-11-22T20:08:46.635Z,7.06
2022-11-22T20:11:17.039Z,7.07
2022-11-22T20:13:46.503Z,7.11
2022-11-22T20:16:24.914Z,7.06
2022-11-22T20:19:02.827Z,7.01
2022-11-22T20:21:31.702Z,7.01
2022-11-22T20:23:58.827Z,7.01
2022-11-22T20:26:26.524Z,7.06
2022-11-22T20:28:58.657Z,7.06
2022-11-22T20:31:26.079Z,7.07
2022-11-22T20:33:54.314Z,7.03
2022-11-22T20:36:23.704Z,7.04
2022-11-22T20:38:51.184Z,7.06
2022-11-22T20:41:20.943Z,7.05
2022-11-22T20:43:49.469Z,7.03
2022-11-22T20:46:18.744Z,7.08
2022-11-22T20:48:47.189Z,7.10
2022-11-22T20:51:16.651Z,7.09
2022-11-22T20:53:43.880Z,7.10
2022-11-22T20:56:11.995Z,7.08
2022-11-22T20:58:38.775Z,7.10
2022-11-22T21:01:07.403Z,7.10
2022-11-22T21:03:34.808Z,7.11
2022-11-22T21:06:02.606Z,7.15
2022-11-22T21:08:29.770Z,7.12
2022-11-22T21:11:17.847Z,7.14
2022-11-22T21:13:45.617Z,7.12
2022-11-22T21:16:23.477Z,7.12
2022-11-22T21:18:51.833Z,7.13
2022-11-22T21:21:24.728Z,7.13
2022-11-22T21:23:53.634Z,7.16
2022-11-22T21:26:22.096Z,7.18
2022-11-22T21:28:49.698Z,7.14
2022-11-22T21:31:16.999Z,7.16
2022-11-22T21:33:44.047Z,7.18
2022-11-22T21:36:10.761Z,7.19
2022-11-22T21:38:40.521Z,7.20
2022-11-22T21:41:38.124Z,7.20
2022-11-22T21:43:56.999Z,7.17
2022-11-22T21:46:25.145Z,7.17
2022-11-22T21:48:52.498Z,7.20
2022-11-22T21:51:19.234Z,7.21
2022-11-22T21:53:45.951Z,7.19
2022-11-22T21:56:12.682Z,7.19
2022-11-22T21:58:39.367Z,7.18
2022-11-22T22:01:10.868Z,7.16
2022-11-22T22:03:40.557Z,7.18
2022-11-22T22:06:07.716Z,7.16
2022-11-22T22:08:34.513Z,7.11
2022-11-22T22:11:04.063Z,7.09
2022-11-22T22:13:31.228Z,7.05
2022-11-22T22:15:59.774Z,7.06
2022-11-22T22:18:37.573Z,7.13
2022-11-22T22:21:11.702Z,7.15
2022-11-22T22:23:39.802Z,7.13
2022-11-22T22:26:08.811Z,7.15
2022-11-22T22:28:37.164Z,7.12
2022-11-22T22:31:09.618Z,7.11
2022-11-22T22:33:38.576Z,7.12
2022-11-22T22:36:06.520Z,7.10
2022-11-22T22:38:33.672Z,7.16
2022-11-22T22:41:02.385Z,7.19
2022-11-22T22:43:38.240Z,7.15
2022-11-22T22:46:11.624Z,7.14
2022-11-22T22:48:38.638Z,7.11
2022-11-22T22:51:09.681Z,7.14
2022-11-22T22:53:36.363Z,7.11
2022-11-22T22:56:03.651Z,7.10
2022-11-22T22:58:30.278Z,7.12
2022-11-22T23:01:17.743Z,7.16
2022-11-22T23:03:51.693Z,7.14
2022-11-22T23:06:18.848Z,7.11
2022-11-22T23:08:47.963Z,7.10
2022-11-22T23:11:15.415Z,7.11
2022-11-22T23:13:42.917Z,7.15
2022-11-22T23:16:12.703Z,7.19
2022-11-22T23:18:41.825Z,7.20
2022-11-22T23:21:12.465Z,7.19
2022-11-22T23:23:39.399Z,7.18
2022-11-22T23:26:09.572Z,7.22
2022-11-22T23:28:36.696Z,7.25
2022-11-22T23:31:07.523Z,7.25
2022-11-22T23:33:34.692Z,7.26
2022-11-22T23:36:06.002Z,7.26
2022-11-22T23:38:33.097Z,7.28
2022-11-22T23:40:59.965Z,7.25
2022-11-22T23:43:27.210Z,7.27
2022-11-22T23:45:53.996Z,7.27
2022-11-22T23:48:20.708Z,7.32
2022-11-22T23:50:47.511Z,7.24
2022-11-22T23:53:14.237Z,7.19
2022-11-22T23:55:40.856Z,7.21
2022-11-22T23:58:07.680Z,7.19
